sensor_id;sensor_type;location;lat;lon;timestamp;pressure;altitude;pressure_sealevel;temperature;humidity
66857;BME280;53766;50.280;19.160;2023-03-08T00:01:10;96618.00;;;16.69;50.01
66857;BME280;53766;50.280;19.160;2023-03-08T00:03:38;96620.44;;;16.70;50.08
66857;BME280;53766;50.280;19.160;2023-03-08T00:06:10;96626.00;;;16.69;50.17
66857;BME280;53766;50.280;19.160;2023-03-08T00:08:37;96622.53;;;16.68;50.12
66857;BME280;53766;50.280;19.160;2023-03-08T00:11:07;96620.69;;;16.69;49.96
66857;BME280;53766;50.280;19.160;2023-03-08T00:13:35;96631.31;;;16.69;49.89
66857;BME280;53766;50.280;19.160;2023-03-08T00:16:05;96633.16;;;16.68;50.05
66857;BME280;53766;50.280;19.160;2023-03-08T00:18:34;96630.50;;;16.68;50.04
66857;BME280;53766;50.280;19.160;2023-03-08T00:21:08;96631.31;;;16.69;50.15
66857;BME280;53766;50.280;19.160;2023-03-08T00:23:36;96617.22;;;16.68;50.21
66857;BME280;53766;50.280;19.160;2023-03-08T00:26:04;96628.88;;;16.67;49.86
66857;BME280;53766;50.280;19.160;2023-03-08T00:28:32;96634.19;;;16.67;49.96
66857;BME280;53766;50.280;19.160;2023-03-08T00:31:02;96633.38;;;16.66;50.04
66857;BME280;53766;50.280;19.160;2023-03-08T00:33:30;96622.75;;;16.66;49.88
66857;BME280;53766;50.280;19.160;2023-03-08T00:36:01;96625.41;;;16.66;49.89
66857;BME280;53766;50.280;19.160;2023-03-08T00:38:31;96631.75;;;16.65;50.14
66857;BME280;53766;50.280;19.160;2023-03-08T00:40:59;96636.28;;;16.65;50.09
66857;BME280;53766;50.280;19.160;2023-03-08T00:43:27;96633.38;;;16.66;49.97
66857;BME280;53766;50.280;19.160;2023-03-08T00:45:55;96621.97;;;16.66;50.18
66857;BME280;53766;50.280;19.160;2023-03-08T00:48:22;96622.97;;;16.65;49.96
66857;BME280;53766;50.280;19.160;2023-03-08T00:50:50;96627.28;;;16.66;49.90
66857;BME280;53766;50.280;19.160;2023-03-08T00:53:17;96626.44;;;16.65;49.87
66857;BME280;53766;50.280;19.160;2023-03-08T00:55:51;96625.66;;;16.65;49.93
66857;BME280;53766;50.280;19.160;2023-03-08T00:58:20;96625.66;;;16.65;49.80
66857;BME280;53766;50.280;19.160;2023-03-08T01:00:48;96632.00;;;16.64;49.82
66857;BME280;53766;50.280;19.160;2023-03-08T01:03:16;96637.91;;;16.66;49.90
66857;BME280;53766;50.280;19.160;2023-03-08T01:05:49;96637.34;;;16.64;49.85
66857;BME280;53766;50.280;19.160;2023-03-08T01:08:18;96638.34;;;16.63;49.94
66857;BME280;53766;50.280;19.160;2023-03-08T01:10:51;96626.94;;;16.62;49.84
66857;BME280;53766;50.280;19.160;2023-03-08T01:13:19;96627.72;;;16.63;49.78
66857;BME280;53766;50.280;19.160;2023-03-08T01:15:47;96628.78;;;16.62;49.81
66857;BME280;53766;50.280;19.160;2023-03-08T01:18:15;96624.03;;;16.64;49.71
66857;BME280;53766;50.280;19.160;2023-03-08T01:20:42;96620.81;;;16.62;49.76
66857;BME280;53766;50.280;19.160;2023-03-08T01:23:10;96626.13;;;16.62;49.76
66857;BME280;53766;50.280;19.160;2023-03-08T01:25:37;96626.94;;;16.62;49.92
66857;BME280;53766;50.280;19.160;2023-03-08T01:28:05;96625.31;;;16.61;49.73
66857;BME280;53766;50.280;19.160;2023-03-08T01:30:33;96625.31;;;16.61;49.85
66857;BME280;53766;50.280;19.160;2023-03-08T01:33:00;96620.00;;;16.61;49.87
66857;BME280;53766;50.280;19.160;2023-03-08T01:35:28;96615.94;;;16.59;49.71
66857;BME280;53766;50.280;19.160;2023-03-08T01:37:55;96612.28;;;16.60;49.79
66857;BME280;53766;50.280;19.160;2023-03-08T01:40:23;96617.59;;;16.60;49.67
66857;BME280;53766;50.280;19.160;2023-03-08T01:42:50;96616.78;;;16.59;49.57
66857;BME280;53766;50.280;19.160;2023-03-08T01:48:31;96618.03;;;16.57;49.67
66857;BME280;53766;50.280;19.160;2023-03-08T01:51:00;96613.78;;;16.56;49.66
66857;BME280;53766;50.280;19.160;2023-03-08T01:53:30;96611.13;;;16.56;49.68
66857;BME280;53766;50.280;19.160;2023-03-08T01:55:58;96616.44;;;16.56;49.61
66857;BME280;53766;50.280;19.160;2023-03-08T01:58:25;96612.72;;;16.57;49.46
66857;BME280;53766;50.280;19.160;2023-03-08T02:00:54;96620.13;;;16.55;49.62
66857;BME280;53766;50.280;19.160;2023-03-08T02:03:21;96612.97;;;16.55;49.41
66857;BME280;53766;50.280;19.160;2023-03-08T02:05:49;96617.22;;;16.56;49.36
66857;BME280;53766;50.280;19.160;2023-03-08T02:08:17;96621.75;;;16.56;49.37
66857;BME280;53766;50.280;19.160;2023-03-08T02:10:45;96614.81;;;16.55;49.30
66857;BME280;53766;50.280;19.160;2023-03-08T02:13:12;96616.44;;;16.56;49.47
66857;BME280;53766;50.280;19.160;2023-03-08T02:15:40;96614.00;;;16.54;49.37
66857;BME280;53766;50.280;19.160;2023-03-08T02:18:07;96609.50;;;16.55;49.38
66857;BME280;53766;50.280;19.160;2023-03-08T02:20:37;96618.28;;;16.55;49.27
66857;BME280;53766;50.280;19.160;2023-03-08T02:23:09;96621.19;;;16.54;49.30
66857;BME280;53766;50.280;19.160;2023-03-08T02:25:37;96619.56;;;16.53;49.17
66857;BME280;53766;50.280;19.160;2023-03-08T02:28:05;96620.38;;;16.53;49.18
66857;BME280;53766;50.280;19.160;2023-03-08T02:30:35;96627.28;;;16.54;49.21
66857;BME280;53766;50.280;19.160;2023-03-08T02:33:03;96629.16;;;16.54;49.31
66857;BME280;53766;50.280;19.160;2023-03-08T02:35:31;96629.16;;;16.54;49.10
66857;BME280;53766;50.280;19.160;2023-03-08T02:37:58;96628.56;;;16.52;49.14
66857;BME280;53766;50.280;19.160;2023-03-08T02:40:26;96636.56;;;16.52;49.21
66857;BME280;53766;50.280;19.160;2023-03-08T02:42:53;96645.31;;;16.52;49.12
66857;BME280;53766;50.280;19.160;2023-03-08T02:45:22;96642.91;;;16.51;48.99
66857;BME280;53766;50.280;19.160;2023-03-08T02:47:50;96638.41;;;16.51;48.97
66857;BME280;53766;50.280;19.160;2023-03-08T02:50:17;96640.25;;;16.51;48.99
66857;BME280;53766;50.280;19.160;2023-03-08T02:52:45;96649.25;;;16.50;49.17
66857;BME280;53766;50.280;19.160;2023-03-08T02:55:12;96657.81;;;16.52;49.03
66857;BME280;53766;50.280;19.160;2023-03-08T02:57:39;96656.22;;;16.51;49.00
66857;BME280;53766;50.280;19.160;2023-03-08T03:00:08;96654.56;;;16.50;48.97
66857;BME280;53766;50.280;19.160;2023-03-08T03:02:35;96656.22;;;16.51;48.87
66857;BME280;53766;50.280;19.160;2023-03-08T03:05:05;96665.22;;;16.50;48.93
66857;BME280;53766;50.280;19.160;2023-03-08T03:07:39;96664.97;;;16.51;48.93
66857;BME280;53766;50.280;19.160;2023-03-08T03:10:10;96673.19;;;16.50;48.82
66857;BME280;53766;50.280;19.160;2023-03-08T03:12:39;96675.84;;;16.50;48.82
66857;BME280;53766;50.280;19.160;2023-03-08T03:15:07;96694.44;;;16.50;48.83
66857;BME280;53766;50.280;19.160;2023-03-08T03:17:35;96692.84;;;16.49;48.92
66857;BME280;53766;50.280;19.160;2023-03-08T03:20:05;96694.44;;;16.50;48.71
66857;BME280;53766;50.280;19.160;2023-03-08T03:22:35;96699.75;;;16.50;48.72
66857;BME280;53766;50.280;19.160;2023-03-08T03:25:04;96698.72;;;16.51;49.03
66857;BME280;53766;50.280;19.160;2023-03-08T03:27:31;96703.22;;;16.50;48.76
66857;BME280;53766;50.280;19.160;2023-03-08T03:29:59;96707.72;;;16.50;48.94
66857;BME280;53766;50.280;19.160;2023-03-08T03:32:26;96708.53;;;16.50;48.88
66857;BME280;53766;50.280;19.160;2023-03-08T03:34:54;96715.47;;;16.51;48.76
66857;BME280;53766;50.280;19.160;2023-03-08T03:37:21;96707.50;;;16.51;49.03
66857;BME280;53766;50.280;19.160;2023-03-08T03:39:49;96710.97;;;16.52;48.94
66857;BME280;53766;50.280;19.160;2023-03-08T03:42:17;96710.97;;;16.52;48.90
66857;BME280;53766;50.280;19.160;2023-03-08T03:44:44;96721.00;;;16.50;48.99
66857;BME280;53766;50.280;19.160;2023-03-08T03:47:12;96725.31;;;16.51;48.66
66857;BME280;53766;50.280;19.160;2023-03-08T03:49:40;96719.97;;;16.51;48.90
66857;BME280;53766;50.280;19.160;2023-03-08T03:52:07;96727.38;;;16.49;48.92
66857;BME280;53766;50.280;19.160;2023-03-08T03:54:35;96732.22;;;16.52;49.00
66857;BME280;53766;50.280;19.160;2023-03-08T03:57:02;96735.94;;;16.51;48.88
66857;BME280;53766;50.280;19.160;2023-03-08T03:59:30;96747.59;;;16.50;48.92
66857;BME280;53766;50.280;19.160;2023-03-08T04:01:57;96750.03;;;16.51;48.73
66857;BME280;53766;50.280;19.160;2023-03-08T04:04:26;96748.38;;;16.50;48.76
66857;BME280;53766;50.280;19.160;2023-03-08T04:06:53;96747.59;;;16.50;48.81
66857;BME280;53766;50.280;19.160;2023-03-08T04:09:21;96756.34;;;16.50;48.95
66857;BME280;53766;50.280;19.160;2023-03-08T04:11:48;96758.22;;;16.50;48.92
66857;BME280;53766;50.280;19.160;2023-03-08T04:14:16;96753.13;;;16.48;48.86
66857;BME280;53766;50.280;19.160;2023-03-08T04:16:43;96763.75;;;16.48;48.73
66857;BME280;53766;50.280;19.160;2023-03-08T04:19:11;96755.56;;;16.50;48.69
66857;BME280;53766;50.280;19.160;2023-03-08T04:21:39;96755.56;;;16.50;48.80
66857;BME280;53766;50.280;19.160;2023-03-08T04:24:07;96748.63;;;16.49;48.65
66857;BME280;53766;50.280;19.160;2023-03-08T04:26:34;96750.47;;;16.48;48.72
66857;BME280;53766;50.280;19.160;2023-03-08T04:29:02;96741.69;;;16.48;48.68
66857;BME280;53766;50.280;19.160;2023-03-08T04:31:33;96743.31;;;16.49;48.57
66857;BME280;53766;50.280;19.160;2023-03-08T04:34:01;96743.31;;;16.49;48.74
66857;BME280;53766;50.280;19.160;2023-03-08T04:36:30;96733.72;;;16.48;48.50
66857;BME280;53766;50.280;19.160;2023-03-08T04:38:58;96744.56;;;16.46;48.69
66857;BME280;53766;50.280;19.160;2023-03-08T04:41:25;96750.72;;;16.47;48.75
66857;BME280;53766;50.280;19.160;2023-03-08T04:43:55;96751.28;;;16.49;48.64
66857;BME280;53766;50.280;19.160;2023-03-08T04:46:26;96759.25;;;16.49;48.72
66857;BME280;53766;50.280;19.160;2023-03-08T04:48:54;96759.25;;;16.49;48.64
66857;BME280;53766;50.280;19.160;2023-03-08T04:51:24;96758.69;;;16.47;48.61
66857;BME280;53766;50.280;19.160;2023-03-08T04:53:51;96766.66;;;16.47;48.62
66857;BME280;53766;50.280;19.160;2023-03-08T04:56:19;96765.84;;;16.46;48.78
66857;BME280;53766;50.280;19.160;2023-03-08T04:58:47;96765.84;;;16.46;48.63
66857;BME280;53766;50.280;19.160;2023-03-08T05:01:19;96769.31;;;16.47;48.48
66857;BME280;53766;50.280;19.160;2023-03-08T05:03:48;96753.59;;;16.45;48.52
66857;BME280;53766;50.280;19.160;2023-03-08T05:06:18;96751.16;;;16.43;48.65
66857;BME280;53766;50.280;19.160;2023-03-08T05:08:47;96765.84;;;16.46;48.51
66857;BME280;53766;50.280;19.160;2023-03-08T05:11:20;96775.66;;;16.45;48.62
66857;BME280;53766;50.280;19.160;2023-03-08T05:13:48;96777.50;;;16.45;48.50
66857;BME280;53766;50.280;19.160;2023-03-08T05:16:16;96784.44;;;16.46;48.44
66857;BME280;53766;50.280;19.160;2023-03-08T05:18:44;96780.97;;;16.45;48.37
66857;BME280;53766;50.280;19.160;2023-03-08T05:21:14;96778.56;;;16.44;48.48
66857;BME280;53766;50.280;19.160;2023-03-08T05:23:43;96782.25;;;16.43;48.54
66857;BME280;53766;50.280;19.160;2023-03-08T05:26:12;96783.06;;;16.43;48.50
66857;BME280;53766;50.280;19.160;2023-03-08T05:28:41;96785.47;;;16.45;48.41
66857;BME280;53766;50.280;19.160;2023-03-08T05:31:12;96783.88;;;16.44;48.40
66857;BME280;53766;50.280;19.160;2023-03-08T05:33:41;96778.56;;;16.44;48.47
66857;BME280;53766;50.280;19.160;2023-03-08T05:36:09;96780.16;;;16.45;48.30
66857;BME280;53766;50.280;19.160;2023-03-08T05:38:37;96782.03;;;16.44;48.48
66857;BME280;53766;50.280;19.160;2023-03-08T05:41:06;96793.44;;;16.45;48.55
66857;BME280;53766;50.280;19.160;2023-03-08T05:43:34;96798.78;;;16.45;48.38
66857;BME280;53766;50.280;19.160;2023-03-08T05:46:05;96802.22;;;16.45;48.41
66857;BME280;53766;50.280;19.160;2023-03-08T05:48:34;96812.84;;;16.45;48.51
66857;BME280;53766;50.280;19.160;2023-03-08T05:51:10;96817.72;;;16.49;48.54
66857;BME280;53766;50.280;19.160;2023-03-08T05:53:39;96810.19;;;16.45;48.44
66857;BME280;53766;50.280;19.160;2023-03-08T05:56:11;96803.88;;;16.47;48.94
66857;BME280;53766;50.280;19.160;2023-03-08T05:58:39;96799.00;;;16.43;49.03
66857;BME280;53766;50.280;19.160;2023-03-08T06:01:21;96797.72;;;16.46;49.19
66857;BME280;53766;50.280;19.160;2023-03-08T06:03:51;96810.19;;;16.45;49.21
66857;BME280;53766;50.280;19.160;2023-03-08T06:06:20;96820.59;;;16.47;49.09
66857;BME280;53766;50.280;19.160;2023-03-08T06:08:48;96829.97;;;16.50;49.25
66857;BME280;53766;50.280;19.160;2023-03-08T06:11:15;96832.03;;;16.48;49.32
66857;BME280;53766;50.280;19.160;2023-03-08T06:13:43;96840.59;;;16.50;49.24
66857;BME280;53766;50.280;19.160;2023-03-08T06:16:10;96843.25;;;16.50;49.48
66857;BME280;53766;50.280;19.160;2023-03-08T06:18:40;96850.41;;;16.49;49.45
66857;BME280;53766;50.280;19.160;2023-03-08T06:21:11;96861.06;;;16.49;49.37
66857;BME280;53766;50.280;19.160;2023-03-08T06:23:39;96864.72;;;16.48;49.12
66857;BME280;53766;50.280;19.160;2023-03-08T06:26:07;96876.19;;;16.49;49.38
66857;BME280;53766;50.280;19.160;2023-03-08T06:28:36;96873.75;;;16.47;49.34
66857;BME280;53766;50.280;19.160;2023-03-08T06:31:07;96876.19;;;16.49;49.42
66857;BME280;53766;50.280;19.160;2023-03-08T06:33:39;96875.72;;;16.52;49.19
66857;BME280;53766;50.280;19.160;2023-03-08T06:36:10;96869.81;;;16.50;49.36
66857;BME280;53766;50.280;19.160;2023-03-08T06:38:39;96882.53;;;16.48;49.31
66857;BME280;53766;50.280;19.160;2023-03-08T06:41:08;96883.59;;;16.47;49.17
66857;BME280;53766;50.280;19.160;2023-03-08T06:43:36;96887.84;;;16.48;49.25
66857;BME280;53766;50.280;19.160;2023-03-08T06:46:13;96880.44;;;16.50;49.29
66857;BME280;53766;50.280;19.160;2023-03-08T06:48:41;96878.25;;;16.47;49.17
66857;BME280;53766;50.280;19.160;2023-03-08T06:51:09;96881.72;;;16.47;49.20
66857;BME280;53766;50.280;19.160;2023-03-08T06:53:36;96886.00;;;16.48;48.78
66857;BME280;53766;50.280;19.160;2023-03-08T06:56:08;96901.94;;;16.48;49.02
66857;BME280;53766;50.280;19.160;2023-03-08T06:58:38;96898.03;;;16.51;48.76
66857;BME280;53766;50.280;19.160;2023-03-08T07:01:06;96898.03;;;16.51;48.76
66857;BME280;53766;50.280;19.160;2023-03-08T07:03:37;96903.94;;;16.53;48.79
66857;BME280;53766;50.280;19.160;2023-03-08T07:06:07;96909.25;;;16.53;48.76
66857;BME280;53766;50.280;19.160;2023-03-08T07:08:36;96912.94;;;16.52;48.72
66857;BME280;53766;50.280;19.160;2023-03-08T07:11:04;96916.38;;;16.52;48.82
66857;BME280;53766;50.280;19.160;2023-03-08T07:13:33;96912.94;;;16.52;48.72
66857;BME280;53766;50.280;19.160;2023-03-08T07:16:05;96918.25;;;16.52;48.68
66857;BME280;53766;50.280;19.160;2023-03-08T07:18:33;96925.19;;;16.53;48.68
66857;BME280;53766;50.280;19.160;2023-03-08T07:21:01;96925.41;;;16.51;48.60
66857;BME280;53766;50.280;19.160;2023-03-08T07:23:29;96923.56;;;16.52;48.47
66857;BME280;53766;50.280;19.160;2023-03-08T07:25:56;96928.88;;;16.52;48.50
66857;BME280;53766;50.280;19.160;2023-03-08T07:28:24;96920.31;;;16.50;48.54
66857;BME280;53766;50.280;19.160;2023-03-08T07:30:52;96916.63;;;16.51;48.55
66857;BME280;53766;50.280;19.160;2023-03-08T07:33:20;96924.59;;;16.51;48.40
66857;BME280;53766;50.280;19.160;2023-03-08T07:35:47;96922.75;;;16.51;48.36
66857;BME280;53766;50.280;19.160;2023-03-08T07:38:16;96927.25;;;16.51;48.18
66857;BME280;53766;50.280;19.160;2023-03-08T07:40:43;96934.19;;;16.52;48.23
66857;BME280;53766;50.280;19.160;2023-03-08T07:43:11;96939.50;;;16.52;48.26
66857;BME280;53766;50.280;19.160;2023-03-08T07:45:39;96945.88;;;16.51;48.21
66857;BME280;53766;50.280;19.160;2023-03-08T07:48:06;96951.78;;;16.53;48.08
66857;BME280;53766;50.280;19.160;2023-03-08T07:50:34;96955.44;;;16.52;48.16
66857;BME280;53766;50.280;19.160;2023-03-08T07:53:01;96961.81;;;16.51;48.22
66857;BME280;53766;50.280;19.160;2023-03-08T07:55:30;96963.63;;;16.50;48.06
66857;BME280;53766;50.280;19.160;2023-03-08T07:57:58;96968.16;;;16.50;48.06
66857;BME280;53766;50.280;19.160;2023-03-08T08:00:26;96968.16;;;16.50;48.09
66857;BME280;53766;50.280;19.160;2023-03-08T08:02:55;96977.16;;;16.49;47.96
66857;BME280;53766;50.280;19.160;2023-03-08T08:05:23;96983.28;;;16.49;48.14
66857;BME280;53766;50.280;19.160;2023-03-08T08:07:54;96975.09;;;16.51;47.85
66857;BME280;53766;50.280;19.160;2023-03-08T08:10:21;96970.00;;;16.49;47.89
66857;BME280;53766;50.280;19.160;2023-03-08T08:12:49;96963.63;;;16.50;47.73
66857;BME280;53766;50.280;19.160;2023-03-08T08:15:16;96958.31;;;16.50;47.85
66857;BME280;53766;50.280;19.160;2023-03-08T08:17:45;96953.59;;;16.52;47.72
66857;BME280;53766;50.280;19.160;2023-03-08T08:20:12;96944.81;;;16.52;47.81
66857;BME280;53766;50.280;19.160;2023-03-08T08:22:41;96946.44;;;16.53;47.73
66857;BME280;53766;50.280;19.160;2023-03-08T08:25:09;96935.00;;;16.52;47.67
66857;BME280;53766;50.280;19.160;2023-03-08T08:27:38;96940.31;;;16.52;47.80
66857;BME280;53766;50.280;19.160;2023-03-08T08:30:05;96945.19;;;16.55;47.51
66857;BME280;53766;50.280;19.160;2023-03-08T08:32:33;96958.22;;;16.57;47.55
66857;BME280;53766;50.280;19.160;2023-03-08T08:35:01;96961.94;;;16.56;47.53
66857;BME280;53766;50.280;19.160;2023-03-08T08:37:31;96951.09;;;16.57;47.53
66857;BME280;53766;50.280;19.160;2023-03-08T08:39:59;96954.53;;;16.58;47.46
66857;BME280;53766;50.280;19.160;2023-03-08T08:42:26;96956.16;;;16.59;47.39
66857;BME280;53766;50.280;19.160;2023-03-08T08:44:54;96958.59;;;16.60;47.31
66857;BME280;53766;50.280;19.160;2023-03-08T08:47:22;96954.06;;;16.61;47.16
66857;BME280;53766;50.280;19.160;2023-03-08T08:49:50;96958.81;;;16.59;47.30
66857;BME280;53766;50.280;19.160;2023-03-08T08:52:18;96956.16;;;16.59;47.38
66857;BME280;53766;50.280;19.160;2023-03-08T08:54:45;96951.88;;;16.58;47.40
66857;BME280;53766;50.280;19.160;2023-03-08T08:57:13;96954.53;;;16.58;47.23
66857;BME280;53766;50.280;19.160;2023-03-08T08:59:40;96959.06;;;16.57;47.15
66857;BME280;53766;50.280;19.160;2023-03-08T09:02:10;96962.50;;;16.58;47.10
66857;BME280;53766;50.280;19.160;2023-03-08T09:04:37;96959.84;;;16.58;47.18
66857;BME280;53766;50.280;19.160;2023-03-08T09:07:05;96954.53;;;16.58;47.15
66857;BME280;53766;50.280;19.160;2023-03-08T09:09:33;96956.16;;;16.59;47.21
66857;BME280;53766;50.280;19.160;2023-03-08T09:12:01;96962.28;;;16.59;47.16
66857;BME280;53766;50.280;19.160;2023-03-08T09:14:28;96966.78;;;16.59;47.04
66857;BME280;53766;50.280;19.160;2023-03-08T09:16:57;96963.31;;;16.58;47.22
66857;BME280;53766;50.280;19.160;2023-03-08T09:19:25;96964.69;;;16.61;47.06
66857;BME280;53766;50.280;19.160;2023-03-08T09:21:52;96960.44;;;16.60;47.09
66857;BME280;53766;50.280;19.160;2023-03-08T09:24:20;96970.03;;;16.61;46.97
66857;BME280;53766;50.280;19.160;2023-03-08T09:26:47;96971.66;;;16.62;46.89
66857;BME280;53766;50.280;19.160;2023-03-08T09:29:15;96961.03;;;16.62;46.93
66857;BME280;53766;50.280;19.160;2023-03-08T09:31:42;96961.03;;;16.62;46.86
66857;BME280;53766;50.280;19.160;2023-03-08T09:34:12;96954.66;;;16.63;46.92
66857;BME280;53766;50.280;19.160;2023-03-08T09:36:41;96953.63;;;16.64;46.85
66857;BME280;53766;50.280;19.160;2023-03-08T09:39:10;96949.91;;;16.65;46.71
66857;BME280;53766;50.280;19.160;2023-03-08T09:41:51;96948.31;;;16.64;46.72
66857;BME280;53766;50.280;19.160;2023-03-08T09:44:38;96951.56;;;16.66;46.58
66857;BME280;53766;50.280;19.160;2023-03-08T09:56:04;96951.66;;;16.71;46.48
66857;BME280;53766;50.280;19.160;2023-03-08T09:58:43;96954.34;;;16.71;46.46
66857;BME280;53766;50.280;19.160;2023-03-08T10:09:39;96957.09;;;16.76;46.35
66857;BME280;53766;50.280;19.160;2023-03-08T10:12:32;96950.19;;;16.75;46.27
66857;BME280;53766;50.280;19.160;2023-03-08T10:15:12;96946.47;;;16.76;46.17
66857;BME280;53766;50.280;19.160;2023-03-08T10:17:48;96941.72;;;16.78;46.34
66857;BME280;53766;50.280;19.160;2023-03-08T10:20:22;96935.41;;;16.79;46.14
66857;BME280;53766;50.280;19.160;2023-03-08T10:22:55;96923.97;;;16.79;45.97
66857;BME280;53766;50.280;19.160;2023-03-08T10:25:30;96922.72;;;16.81;46.01
66857;BME280;53766;50.280;19.160;2023-03-08T10:28:01;96915.75;;;16.80;46.11
66857;BME280;53766;50.280;19.160;2023-03-08T10:30:35;96917.38;;;16.81;46.03
66857;BME280;53766;50.280;19.160;2023-03-08T10:33:10;96923.50;;;16.82;45.92
66857;BME280;53766;50.280;19.160;2023-03-08T10:35:57;96913.69;;;16.82;46.07
66857;BME280;53766;50.280;19.160;2023-03-08T10:38:29;96917.13;;;16.83;45.90
66857;BME280;53766;50.280;19.160;2023-03-08T10:41:14;96908.34;;;16.82;45.88
66857;BME280;53766;50.280;19.160;2023-03-08T10:43:45;96914.25;;;16.84;45.79
66857;BME280;53766;50.280;19.160;2023-03-08T10:46:19;96911.59;;;16.84;45.87
66857;BME280;53766;50.280;19.160;2023-03-08T10:48:47;96913.22;;;16.85;45.85
66857;BME280;53766;50.280;19.160;2023-03-08T10:51:26;96918.09;;;16.89;45.65
66857;BME280;53766;50.280;19.160;2023-03-08T10:54:04;96908.25;;;16.89;45.77
66857;BME280;53766;50.280;19.160;2023-03-08T10:56:44;96901.06;;;16.90;45.68
66857;BME280;53766;50.280;19.160;2023-03-08T10:59:19;96912.75;;;16.89;45.52
66857;BME280;53766;50.280;19.160;2023-03-08T11:01:52;96909.03;;;16.90;45.69
66857;BME280;53766;50.280;19.160;2023-03-08T11:04:21;96910.69;;;16.91;45.40
66857;BME280;53766;50.280;19.160;2023-03-08T11:06:50;96914.38;;;16.90;45.55
66857;BME280;53766;50.280;19.160;2023-03-08T11:09:26;96889.63;;;16.89;45.57
66857;BME280;53766;50.280;19.160;2023-03-08T11:11:56;96888.59;;;16.90;45.61
66857;BME280;53766;50.280;19.160;2023-03-08T11:14:25;96885.38;;;16.88;45.52
66857;BME280;53766;50.280;19.160;2023-03-08T11:35:34;96856.34;;;16.86;45.45
66857;BME280;53766;50.280;19.160;2023-03-08T11:44:05;96849.88;;;16.82;45.29
66857;BME280;53766;50.280;19.160;2023-03-08T11:52:27;96858.91;;;16.81;45.36
66857;BME280;53766;50.280;19.160;2023-03-08T12:00:52;96858.91;;;16.81;45.39
66857;BME280;53766;50.280;19.160;2023-03-08T12:03:32;96855.19;;;16.82;45.28
66857;BME280;53766;50.280;19.160;2023-03-08T12:06:08;96840.88;;;16.83;45.25
66857;BME280;53766;50.280;19.160;2023-03-08T12:14:04;96841.44;;;16.85;45.22
66857;BME280;53766;50.280;19.160;2023-03-08T12:24:49;96813.09;;;16.91;45.19
66857;BME280;53766;50.280;19.160;2023-03-08T12:27:48;96803.25;;;16.92;45.13
66857;BME280;53766;50.280;19.160;2023-03-08T12:33:12;96801.44;;;16.92;45.18
66857;BME280;53766;50.280;19.160;2023-03-08T12:35:58;96796.91;;;16.93;45.13
66857;BME280;53766;50.280;19.160;2023-03-08T12:38:30;96790.78;;;16.92;45.00
66857;BME280;53766;50.280;19.160;2023-03-08T12:40:59;96788.38;;;16.91;45.24
66857;BME280;53766;50.280;19.160;2023-03-08T12:43:29;96793.69;;;16.91;45.25
66857;BME280;53766;50.280;19.160;2023-03-08T12:48:30;96788.38;;;16.91;45.32
66857;BME280;53766;50.280;19.160;2023-03-08T12:51:17;96791.59;;;16.93;45.16
66857;BME280;53766;50.280;19.160;2023-03-08T12:59:33;96778.53;;;16.91;45.01
66857;BME280;53766;50.280;19.160;2023-03-08T13:02:20;96784.66;;;16.92;45.03
66857;BME280;53766;50.280;19.160;2023-03-08T13:05:12;96789.97;;;16.92;45.04
66857;BME280;53766;50.280;19.160;2023-03-08T13:10:52;96788.38;;;16.91;45.07
66857;BME280;53766;50.280;19.160;2023-03-08T13:13:28;96775.06;;;16.91;45.16
66857;BME280;53766;50.280;19.160;2023-03-08T13:18:44;96765.47;;;16.90;44.98
66857;BME280;53766;50.280;19.160;2023-03-08T13:21:22;96776.09;;;16.90;45.04
66857;BME280;53766;50.280;19.160;2023-03-08T13:24:04;96770.78;;;16.90;44.98
66857;BME280;53766;50.280;19.160;2023-03-08T13:29:19;96763.84;;;16.89;44.96
66857;BME280;53766;50.280;19.160;2023-03-08T13:31:47;96762.25;;;16.88;45.01
66857;BME280;53766;50.280;19.160;2023-03-08T13:34:26;96754.81;;;16.90;44.90
66857;BME280;53766;50.280;19.160;2023-03-08T13:36:54;96745.25;;;16.89;44.90
66857;BME280;53766;50.280;19.160;2023-03-08T13:39:24;96739.91;;;16.89;44.78
66857;BME280;53766;50.280;19.160;2023-03-08T13:42:07;96739.91;;;16.89;44.84
66857;BME280;53766;50.280;19.160;2023-03-08T13:44:34;96735.66;;;16.88;44.79
66857;BME280;53766;50.280;19.160;2023-03-08T13:47:23;96728.22;;;16.90;44.68
66857;BME280;53766;50.280;19.160;2023-03-08T13:49:52;96721.31;;;16.89;44.67
66857;BME280;53766;50.280;19.160;2023-03-08T13:52:24;96728.22;;;16.90;44.74
66857;BME280;53766;50.280;19.160;2023-03-08T13:54:58;96722.91;;;16.90;44.62
66857;BME280;53766;50.280;19.160;2023-03-08T13:57:31;96719.22;;;16.91;44.72
66857;BME280;53766;50.280;19.160;2023-03-08T14:00:33;96717.38;;;16.91;44.69
66857;BME280;53766;50.280;19.160;2023-03-08T14:03:03;96716.00;;;16.89;44.64
66857;BME280;53766;50.280;19.160;2023-03-08T14:05:40;96709.06;;;16.88;44.70
66857;BME280;53766;50.280;19.160;2023-03-08T14:08:27;96710.69;;;16.89;44.54
66857;BME280;53766;50.280;19.160;2023-03-08T14:11:06;96710.69;;;16.89;44.63
66857;BME280;53766;50.280;19.160;2023-03-08T14:13:44;96707.44;;;16.86;44.55
66857;BME280;53766;50.280;19.160;2023-03-08T14:16:36;96680.06;;;16.86;44.67
66857;BME280;53766;50.280;19.160;2023-03-08T14:19:35;96691.50;;;16.86;44.56
66857;BME280;53766;50.280;19.160;2023-03-08T14:22:14;96671.28;;;16.85;44.49
66857;BME280;53766;50.280;19.160;2023-03-08T14:24:54;96672.31;;;16.84;44.56
66857;BME280;53766;50.280;19.160;2023-03-08T14:27:37;96664.31;;;16.84;44.58
66857;BME280;53766;50.280;19.160;2023-03-08T14:30:10;96650.22;;;16.84;44.52
66857;BME280;53766;50.280;19.160;2023-03-08T14:32:38;96634.28;;;16.84;44.66
66857;BME280;53766;50.280;19.160;2023-03-08T14:35:20;96640.63;;;16.83;44.59
66857;BME280;53766;50.280;19.160;2023-03-08T14:37:48;96637.97;;;16.83;44.57